createdAt,value
2018-11-10T00:02:28.268Z,63.40
2018-11-10T00:04:58.008Z,60.27
2018-11-10T00:07:27.733Z,59.80
2018-11-10T00:09:57.702Z,65.50
2018-11-10T00:12:28.190Z,59.80
2018-11-10T00:14:57.877Z,62.37
2018-11-10T00:17:27.604Z,59.93
2018-11-10T00:19:57.562Z,55.33
2018-11-10T00:22:27.270Z,54.63
2018-11-10T00:24:57.167Z,54.57
2018-11-10T00:27:26.839Z,68.70
2018-11-10T00:29:56.540Z,56.20
2018-11-10T00:32:26.268Z,57.43
2018-11-10T00:34:56.609Z,55.33
2018-11-10T00:37:26.375Z,47.17
2018-11-10T00:39:56.086Z,51.63
2018-11-10T00:42:25.858Z,52.90
2018-11-10T00:44:57.905Z,60.97
2018-11-10T00:47:27.647Z,64.70
2018-11-10T00:49:57.644Z,60.97
2018-11-10T00:52:27.359Z,52.63
2018-11-10T00:55:00.772Z,51.63
2018-11-10T00:57:30.507Z,52.63
2018-11-10T01:00:00.260Z,58.47
2018-11-10T01:02:30.026Z,63.03
2018-11-10T01:05:00.022Z,61.23
2018-11-10T01:07:29.935Z,61.80
2018-11-10T01:09:59.675Z,60.53
2018-11-10T01:12:29.409Z,56.83
2018-11-10T01:14:59.242Z,58.03
2018-11-10T01:17:28.917Z,66.23
2018-11-10T01:19:58.901Z,61.60
2018-11-10T01:22:29.339Z,67.17
2018-11-10T01:24:59.052Z,79.47
2018-11-10T01:27:28.782Z,68.37
2018-11-10T01:29:58.534Z,65.17
2018-11-10T01:32:28.261Z,68.97
2018-11-10T01:34:58.287Z,65.10
2018-11-10T01:37:28.053Z,61.80
2018-11-10T01:39:57.753Z,62.30
2018-11-10T01:42:27.915Z,61.37
2018-11-10T01:44:58.973Z,65.33
2018-11-10T01:47:28.692Z,64.90
2018-11-10T01:49:59.151Z,69.37
2018-11-10T01:52:28.978Z,67.43
2018-11-10T01:54:58.688Z,63.50
2018-11-10T01:57:28.446Z,67.47
2018-11-10T01:59:58.263Z,71.20
2018-11-10T02:02:30.880Z,65.13
2018-11-10T02:05:00.555Z,61.20
2018-11-10T02:07:30.303Z,65.63
2018-11-10T02:09:59.970Z,72.07
2018-11-10T02:12:29.899Z,66.20
2018-11-10T02:14:59.596Z,62.43
2018-11-10T02:17:29.961Z,69.00
2018-11-10T02:19:59.953Z,68.97
2018-11-10T02:22:29.723Z,69.77
2018-11-10T02:24:59.423Z,62.10
2018-11-10T02:27:29.143Z,66.07
2018-11-10T02:30:00.252Z,75.27
2018-11-10T02:32:29.956Z,67.77
2018-11-10T02:34:59.634Z,72.47
2018-11-10T02:37:29.362Z,71.63
2018-11-10T02:39:59.149Z,63.80
2018-11-10T02:42:28.991Z,57.60
2018-11-10T02:44:59.076Z,66.67
2018-11-10T02:47:28.954Z,63.17
2018-11-10T02:49:59.524Z,59.43
2018-11-10T02:52:29.980Z,56.77
2018-11-10T02:54:59.691Z,57.10
2018-11-10T02:57:29.468Z,63.00
2018-11-10T03:00:00.487Z,52.20
2018-11-10T03:02:30.189Z,59.00
2018-11-10T03:04:59.989Z,61.97
2018-11-10T03:07:29.670Z,49.77
2018-11-10T03:09:59.398Z,58.40
2018-11-10T03:12:29.066Z,51.10
2018-11-10T03:14:59.071Z,55.97
2018-11-10T03:17:28.864Z,51.57
2018-11-10T03:19:58.604Z,51.97
2018-11-10T03:22:28.620Z,51.17
2018-11-10T03:24:58.575Z,44.70
2018-11-10T03:27:28.590Z,50.40
2018-11-10T03:29:58.271Z,49.23
2018-11-10T03:32:29.101Z,54.63
2018-11-10T03:34:58.776Z,56.27
2018-11-10T03:37:28.475Z,56.70
2018-11-10T03:39:58.461Z,52.70
2018-11-10T03:42:28.165Z,45.47
2018-11-10T03:44:58.450Z,53.40
2018-11-10T03:47:28.203Z,56.50
2018-11-10T03:49:58.369Z,56.60
2018-11-10T03:52:28.079Z,48.17
2018-11-10T03:54:57.748Z,49.07
2018-11-10T03:57:27.460Z,48.40
2018-11-10T03:59:58.673Z,52.97
2018-11-10T04:02:28.435Z,50.77
2018-11-10T04:04:58.171Z,47.00
2018-11-10T04:07:27.903Z,48.63
2018-11-10T04:09:57.591Z,47.67
2018-11-10T04:12:27.463Z,49.50
2018-11-10T04:15:02.749Z,46.30
2018-11-10T04:17:32.476Z,49.57
2018-11-10T04:20:02.335Z,47.87
2018-11-10T04:22:34.366Z,56.17
2018-11-10T04:25:05.478Z,44.97
2018-11-10T04:27:35.277Z,41.97
2018-11-10T04:30:06.014Z,50.77
2018-11-10T04:32:36.427Z,47.47
2018-11-10T04:35:07.348Z,50.00
2018-11-10T04:37:37.859Z,50.83
2018-11-10T04:40:08.506Z,48.13
2018-11-10T04:42:38.198Z,49.13
2018-11-10T04:45:08.971Z,54.10
2018-11-10T04:47:39.011Z,49.57
2018-11-10T04:50:10.379Z,45.33
2018-11-10T04:52:40.213Z,43.37
2018-11-10T04:55:11.108Z,44.57
2018-11-10T04:57:40.973Z,45.57
2018-11-10T05:00:13.645Z,44.37
2018-11-10T05:02:44.130Z,46.70
2018-11-10T05:05:14.216Z,46.00
2018-11-10T05:07:44.368Z,44.30
2018-11-10T05:10:14.074Z,46.53
2018-11-10T05:12:43.811Z,45.23
2018-11-10T05:15:15.459Z,46.80
2018-11-10T05:17:45.134Z,42.13
2018-11-10T05:20:14.880Z,43.27
2018-11-10T05:22:44.606Z,43.20
2018-11-10T05:25:15.686Z,46.37
2018-11-10T05:27:45.512Z,39.47
2018-11-10T05:30:15.280Z,38.70
2018-11-10T05:32:45.021Z,37.00
2018-11-10T05:35:14.801Z,37.83
2018-11-10T05:37:44.477Z,40.00
2018-11-10T05:40:17.639Z,40.40
2018-11-10T05:42:47.359Z,39.80
2018-11-10T05:45:17.239Z,36.90
2018-11-10T05:47:47.017Z,37.43
2018-11-10T05:50:16.905Z,39.20
2018-11-10T05:52:46.664Z,40.30
2018-11-10T05:55:16.489Z,38.33
2018-11-10T05:57:46.528Z,39.27
2018-11-10T06:00:16.561Z,36.13
2018-11-10T06:02:46.275Z,42.23
2018-11-10T06:05:16.185Z,41.00
2018-11-10T06:07:46.145Z,33.40
2018-11-10T06:10:15.986Z,33.63
2018-11-10T06:12:45.808Z,41.37
2018-11-10T06:15:15.594Z,39.23
2018-11-10T06:17:45.450Z,37.37
2018-11-10T06:20:15.161Z,42.77
2018-11-10T06:22:47.435Z,42.30
2018-11-10T06:25:17.147Z,39.97
2018-11-10T06:27:46.908Z,37.77
2018-11-10T06:30:16.705Z,38.37
2018-11-10T06:32:46.874Z,42.40
2018-11-10T06:35:16.572Z,40.90
2018-11-10T06:37:46.310Z,32.53
2018-11-10T06:40:16.008Z,37.83
2018-11-10T06:42:46.016Z,35.20
2018-11-10T06:45:15.829Z,34.57
2018-11-10T06:47:45.642Z,36.73
2018-11-10T06:50:16.209Z,34.20
2018-11-10T06:52:46.166Z,36.37
2018-11-10T06:55:15.943Z,34.27
2018-11-10T06:57:47.071Z,37.40
2018-11-10T07:00:16.848Z,32.30
2018-11-10T07:02:46.538Z,32.33
2018-11-10T07:05:16.247Z,30.97
2018-11-10T07:07:46.373Z,29.70
2018-11-10T07:13:10.049Z,30.83
2018-11-10T07:15:40.462Z,30.33
2018-11-10T07:18:10.543Z,37.40
2018-11-10T07:20:40.498Z,32.53
2018-11-10T07:23:10.386Z,31.67
2018-11-10T07:25:40.697Z,27.53
2018-11-10T07:28:10.588Z,27.70
2018-11-10T07:30:40.842Z,28.07
2018-11-10T07:33:10.658Z,28.70
2018-11-10T07:35:40.810Z,25.30
2018-11-10T07:38:10.965Z,23.03
2018-11-10T07:40:40.823Z,27.70
2018-11-10T07:43:10.964Z,31.37
2018-11-10T07:45:41.165Z,29.80
2018-11-10T07:48:12.558Z,26.77
2018-11-10T07:50:42.614Z,30.10
2018-11-10T07:53:12.458Z,31.00
2018-11-10T07:55:42.347Z,24.23
2018-11-10T07:58:13.474Z,23.57
2018-11-10T08:00:43.637Z,31.07
2018-11-10T08:03:13.499Z,24.90
2018-11-10T08:05:43.825Z,23.90
2018-11-10T08:08:15.028Z,24.43
2018-11-10T08:10:47.279Z,22.67
2018-11-10T08:13:17.234Z,25.43
2018-11-10T08:15:49.284Z,26.77
2018-11-10T08:18:19.797Z,23.30
2018-11-10T08:20:50.809Z,24.80
2018-11-10T08:23:43.136Z,25.07
2018-11-10T08:26:13.056Z,26.50
2018-11-10T08:28:51.253Z,26.67
2018-11-10T08:31:21.276Z,22.37
2018-11-10T08:33:51.130Z,25.37
2018-11-10T08:52:54.284Z,30.23
2018-11-10T08:55:25.073Z,24.70
2018-11-10T08:57:55.064Z,26.00
2018-11-10T09:00:24.970Z,29.23
2018-11-10T09:02:55.832Z,32.60
2018-11-10T09:05:27.111Z,32.50
2018-11-10T09:07:57.375Z,26.60
2018-11-10T09:10:27.324Z,24.73
2018-11-10T09:13:01.451Z,25.23
2018-11-10T09:15:31.944Z,26.00
2018-11-10T09:18:01.808Z,24.77
2018-11-10T09:20:32.159Z,31.87
2018-11-10T09:23:02.173Z,25.23
2018-11-10T09:28:15.719Z,23.23
2018-11-10T09:30:47.572Z,24.63
2018-11-10T09:33:17.638Z,24.43
2018-11-10T09:35:47.918Z,27.47
2018-11-10T09:38:17.911Z,23.30
2018-11-10T09:40:48.233Z,22.93
2018-11-10T09:43:18.131Z,21.13
2018-11-10T09:45:47.982Z,24.40
2018-11-10T09:48:18.539Z,21.20
2018-11-10T09:50:48.907Z,22.37
2018-11-10T09:53:19.011Z,23.73
2018-11-10T09:55:53.570Z,22.20
2018-11-10T09:58:23.837Z,21.30
2018-11-10T10:00:53.722Z,19.77
2018-11-10T10:03:24.316Z,21.20
2018-11-10T10:06:04.261Z,18.53
2018-11-10T10:08:38.417Z,15.87
2018-11-10T10:11:08.386Z,17.80
2018-11-10T10:13:39.568Z,16.83
2018-11-10T10:16:09.706Z,17.03
2018-11-10T10:18:39.684Z,17.07
2018-11-10T10:21:10.068Z,18.83
2018-11-10T10:23:40.598Z,16.53
2018-11-10T10:26:10.725Z,15.20
2018-11-10T10:28:40.585Z,14.40
2018-11-10T10:31:10.651Z,14.07
2018-11-10T10:33:43.190Z,12.50
2018-11-10T10:36:16.605Z,12.97
2018-11-10T10:38:47.219Z,14.20
2018-11-10T10:41:17.324Z,15.30
2018-11-10T10:43:49.952Z,11.30
2018-11-10T10:46:20.539Z,10.73
2018-11-10T10:48:51.563Z,10.20
2018-11-10T10:51:22.297Z,10.27
2018-11-10T10:53:52.359Z,9.50
2018-11-10T10:56:23.701Z,10.70
2018-11-10T10:58:53.855Z,11.37
2018-11-10T11:01:29.979Z,10.50
2018-11-10T11:04:06.386Z,9.47
2018-11-10T11:06:36.819Z,9.70
2018-11-10T11:09:09.605Z,13.30
2018-11-10T11:11:39.518Z,10.53
2018-11-10T11:14:09.755Z,10.07
2018-11-10T11:16:39.798Z,10.70
2018-11-10T11:19:10.018Z,9.93
2018-11-10T11:21:39.869Z,9.43
2018-11-10T11:27:47.862Z,11.03
2018-11-10T11:30:31.100Z,8.57
2018-11-10T11:33:01.189Z,30.77
2018-11-10T11:35:31.410Z,38.50
2018-11-10T11:38:01.879Z,12.83
2018-11-10T11:40:32.024Z,8.77
2018-11-10T11:43:02.832Z,10.67
2018-11-10T11:45:33.102Z,13.17
2018-11-10T11:48:03.178Z,12.00
2018-11-10T11:50:33.526Z,8.70
2018-11-10T11:53:04.538Z,12.37
2018-11-10T11:55:34.410Z,10.20
2018-11-10T11:58:05.187Z,10.40
2018-11-10T12:00:36.464Z,9.63
2018-11-10T12:03:06.549Z,7.87
2018-11-10T12:05:37.117Z,9.57
2018-11-10T12:11:12.225Z,6.53
2018-11-10T12:13:43.255Z,8.50
2018-11-10T12:16:13.679Z,6.40
2018-11-10T12:18:43.735Z,6.73
2018-11-10T12:21:14.446Z,7.40
2018-11-10T12:23:44.344Z,7.03
2018-11-10T12:26:15.134Z,7.13
2018-11-10T12:28:45.161Z,6.70
2018-11-10T12:31:15.033Z,7.40
2018-11-10T12:33:47.237Z,6.67
2018-11-10T12:36:18.103Z,7.10
2018-11-10T12:38:48.044Z,7.50
2018-11-10T12:41:18.851Z,7.77
2018-11-10T12:43:48.918Z,9.17
2018-11-10T12:46:30.849Z,11.23
2018-11-10T12:51:49.915Z,9.40
2018-11-10T12:54:20.390Z,9.50
2018-11-10T12:56:50.257Z,6.03
2018-11-10T12:59:31.065Z,6.80
2018-11-10T13:02:08.409Z,8.13
2018-11-10T13:04:38.476Z,8.77
2018-11-10T13:07:08.702Z,8.07
2018-11-10T13:09:40.283Z,8.10
2018-11-10T13:12:10.767Z,9.07
2018-11-10T13:14:41.054Z,8.10
2018-11-10T13:17:12.407Z,9.80
2018-11-10T13:19:42.364Z,6.80
2018-11-10T13:22:12.511Z,7.70
2018-11-10T13:24:48.495Z,8.17
2018-11-10T13:27:18.763Z,8.40
2018-11-10T13:29:49.008Z,8.87
2018-11-10T13:32:19.075Z,9.33
2018-11-10T13:34:49.536Z,11.47
2018-11-10T13:37:19.722Z,10.33
2018-11-10T13:39:50.940Z,9.03
2018-11-10T13:42:21.398Z,9.47
2018-11-10T13:44:51.674Z,7.73
2018-11-10T13:47:22.070Z,8.80
2018-11-10T13:49:52.095Z,9.47
2018-11-10T13:52:23.005Z,8.80
2018-11-10T13:55:04.639Z,7.50
2018-11-10T13:57:34.652Z,6.43
2018-11-10T14:00:05.596Z,7.10
2018-11-10T14:02:35.463Z,8.23
2018-11-10T14:05:05.934Z,6.40
2018-11-10T14:07:36.769Z,9.23
2018-11-10T14:10:08.395Z,6.83
2018-11-10T14:12:38.328Z,7.67
2018-11-10T14:15:08.607Z,7.20
2018-11-10T14:17:38.746Z,7.90
2018-11-10T14:20:12.768Z,7.13
2018-11-10T14:22:43.273Z,6.97
2018-11-10T14:25:14.353Z,7.27
2018-11-10T14:27:49.306Z,7.40
2018-11-10T14:30:19.627Z,9.87
2018-11-10T14:32:54.783Z,6.97
2018-11-10T14:35:24.966Z,9.60
2018-11-10T14:37:54.991Z,6.10
2018-11-10T14:40:25.367Z,8.73
2018-11-10T14:42:55.401Z,11.10
2018-11-10T14:45:26.436Z,7.53
2018-11-10T14:47:56.388Z,9.70
2018-11-10T14:50:27.184Z,6.47
2018-11-10T14:52:58.373Z,6.63
2018-11-10T14:55:28.534Z,4.97
2018-11-10T14:57:58.384Z,7.10
2018-11-10T15:00:31.868Z,4.87
2018-11-10T15:03:01.758Z,6.97
2018-11-10T15:05:31.667Z,5.27
2018-11-10T15:08:01.677Z,5.80
2018-11-10T15:10:33.863Z,9.13
2018-11-10T15:13:05.151Z,7.80
2018-11-10T15:15:43.356Z,8.83
2018-11-10T15:18:13.594Z,6.73
2018-11-10T15:20:43.772Z,5.60
2018-11-10T15:23:13.539Z,7.73
2018-11-10T15:25:43.349Z,6.97
2018-11-10T15:28:15.014Z,6.23
2018-11-10T15:30:44.836Z,6.17
2018-11-10T15:33:14.874Z,5.80
2018-11-10T15:35:45.745Z,7.23
2018-11-10T15:38:16.080Z,7.10
2018-11-10T15:40:45.830Z,6.60
2018-11-10T15:43:17.190Z,7.07
2018-11-10T15:45:47.088Z,8.30
2018-11-10T15:48:16.956Z,6.63
2018-11-10T15:50:47.806Z,5.77
2018-11-10T15:53:17.919Z,8.40
2018-11-10T15:55:47.798Z,8.97
2018-11-10T15:58:17.648Z,10.43
2018-11-10T16:00:47.694Z,9.47
2018-11-10T16:03:19.060Z,6.20
2018-11-10T16:05:49.428Z,12.20
2018-11-10T16:08:19.877Z,9.43
2018-11-10T16:10:49.763Z,9.07
2018-11-10T16:13:23.482Z,7.63
2018-11-10T16:15:53.590Z,7.83
2018-11-10T16:18:23.501Z,6.47
2018-11-10T16:20:53.605Z,7.60
2018-11-10T16:23:25.498Z,7.97
2018-11-10T16:25:55.829Z,5.27
2018-11-10T16:28:52.404Z,9.03
2018-11-10T16:31:25.071Z,6.47
2018-11-10T16:33:55.165Z,7.77
2018-11-10T16:36:26.308Z,6.53
2018-11-10T16:38:56.430Z,8.60
2018-11-10T16:41:27.723Z,8.90
2018-11-10T16:43:57.895Z,8.97
2018-11-10T16:46:28.035Z,6.97
2018-11-10T16:48:57.949Z,8.30
2018-11-10T16:51:27.923Z,7.40
2018-11-10T16:53:57.744Z,7.10
2018-11-10T16:56:29.082Z,7.97
2018-11-10T16:58:58.923Z,10.43
2018-11-10T17:01:33.088Z,9.33
2018-11-10T17:04:03.087Z,9.13
2018-11-10T17:06:36.942Z,7.20
2018-11-10T17:09:09.288Z,8.67
2018-11-10T17:11:39.569Z,10.03
2018-11-10T17:14:10.970Z,11.60
2018-11-10T17:16:42.203Z,9.47
2018-11-10T17:19:12.016Z,10.47
2018-11-10T17:21:42.139Z,8.93
2018-11-10T17:24:15.531Z,10.03
2018-11-10T17:29:31.540Z,11.33
2018-11-10T17:32:01.480Z,13.50
2018-11-10T17:34:32.143Z,11.43
2018-11-10T17:37:02.443Z,10.13
2018-11-10T17:39:32.352Z,13.03
2018-11-10T17:42:04.245Z,17.20
2018-11-10T17:44:34.140Z,16.70
2018-11-10T17:47:04.012Z,15.87
2018-11-10T17:49:41.959Z,12.57
2018-11-10T17:52:12.822Z,17.47
2018-11-10T17:54:42.933Z,18.50
2018-11-10T17:57:17.665Z,16.17
2018-11-10T17:59:47.561Z,16.13
2018-11-10T18:02:23.033Z,17.87
2018-11-10T18:04:53.510Z,13.97
2018-11-10T18:07:23.937Z,17.67
2018-11-10T18:09:53.931Z,16.47
2018-11-10T18:12:24.607Z,14.93
2018-11-10T18:14:54.699Z,15.30
2018-11-10T18:17:25.680Z,14.60
2018-11-10T18:19:55.952Z,19.33
2018-11-10T18:22:26.345Z,15.33
2018-11-10T18:25:01.886Z,16.67
2018-11-10T18:27:32.569Z,15.67
2018-11-10T18:30:03.405Z,19.67
2018-11-10T18:32:34.801Z,15.93
2018-11-10T18:35:06.260Z,14.60
2018-11-10T18:37:38.398Z,17.10
2018-11-10T18:40:10.229Z,15.07
2018-11-10T18:42:45.261Z,18.40
2018-11-10T18:45:16.933Z,15.80
2018-11-10T18:47:55.180Z,20.00
2018-11-10T18:50:27.435Z,18.87
2018-11-10T18:53:07.575Z,18.07
2018-11-10T18:55:38.118Z,21.37
2018-11-10T18:58:09.449Z,20.23
2018-11-10T19:00:39.359Z,19.37
2018-11-10T19:03:10.080Z,21.33
2018-11-10T19:05:40.258Z,22.33
2018-11-10T19:08:12.514Z,25.67
2018-11-10T19:10:43.555Z,20.47
2018-11-10T19:13:13.829Z,33.00
2018-11-10T19:15:43.758Z,20.47
2018-11-10T19:18:13.764Z,19.03
2018-11-10T19:20:43.620Z,26.60
2018-11-10T19:23:15.781Z,20.93
2018-11-10T19:25:47.604Z,18.63
2018-11-10T19:28:17.521Z,22.70
2018-11-10T19:30:49.068Z,18.77
2018-11-10T19:33:19.129Z,20.30
2018-11-10T19:35:49.115Z,19.97
2018-11-10T19:38:19.185Z,23.60
2018-11-10T19:40:49.235Z,21.07
2018-11-10T19:43:19.068Z,20.23
2018-11-10T19:45:49.023Z,20.80
2018-11-10T19:48:18.949Z,24.00
2018-11-10T19:50:49.164Z,21.83
2018-11-10T19:53:20.285Z,25.30
2018-11-10T19:55:50.840Z,22.60
2018-11-10T19:58:20.618Z,26.07
2018-11-10T20:00:51.641Z,22.37
2018-11-10T20:03:21.489Z,24.17
2018-11-10T20:05:51.298Z,22.73
2018-11-10T20:08:23.083Z,23.83
2018-11-10T20:10:53.477Z,23.67
2018-11-10T20:13:24.095Z,25.57
2018-11-10T20:16:04.472Z,21.03
2018-11-10T20:18:34.651Z,23.83
2018-11-10T20:21:04.705Z,23.33
2018-11-10T20:23:35.401Z,23.57
2018-11-10T20:26:07.841Z,22.20
2018-11-10T20:48:28.060Z,20.77
2018-11-10T20:51:01.792Z,20.67
2018-11-10T20:53:32.516Z,21.17
2018-11-10T20:56:03.471Z,24.23
2018-11-10T20:58:33.386Z,24.53
2018-11-10T21:01:03.370Z,22.23
2018-11-10T21:03:33.761Z,24.40
2018-11-10T21:06:04.064Z,26.37
2018-11-10T21:08:34.824Z,21.97
2018-11-10T21:11:05.016Z,22.53
2018-11-10T21:13:34.864Z,26.60
2018-11-10T21:16:06.629Z,23.73
2018-11-10T21:18:37.404Z,26.73
2018-11-10T21:21:07.321Z,23.00
2018-11-10T21:23:37.309Z,21.53
2018-11-10T21:29:32.631Z,24.87
2018-11-10T21:32:36.532Z,24.30
2018-11-10T21:35:07.395Z,26.07
2018-11-10T21:40:30.525Z,22.13
2018-11-10T21:43:00.748Z,23.67
2018-11-10T21:45:30.547Z,27.83
2018-11-10T21:48:00.373Z,26.27
2018-11-10T21:50:30.190Z,23.40
2018-11-10T21:53:00.015Z,21.47
2018-11-10T21:55:29.984Z,29.87
2018-11-10T21:58:00.366Z,24.87
2018-11-10T22:00:30.220Z,23.77
2018-11-10T22:03:00.024Z,19.87
2018-11-10T22:05:29.952Z,21.03
2018-11-10T22:07:59.888Z,23.30
2018-11-10T22:10:29.979Z,23.83
2018-11-10T22:13:00.456Z,18.43
2018-11-10T22:15:30.869Z,31.60
2018-11-10T22:18:00.848Z,24.83
2018-11-10T22:20:31.214Z,21.10
2018-11-10T22:23:01.538Z,26.40
2018-11-10T22:25:31.307Z,21.57
2018-11-10T22:29:12.594Z,18.93
2018-11-10T22:31:43.904Z,20.07
2018-11-10T22:34:13.760Z,22.93
2018-11-10T22:36:43.982Z,21.87
2018-11-10T22:41:20.829Z,20.07
2018-11-10T22:43:50.983Z,20.33
2018-11-10T22:46:20.801Z,23.80
2018-11-10T22:49:12.195Z,18.53
2018-11-10T22:54:38.821Z,23.00
2018-11-10T22:57:08.639Z,21.60
2018-11-10T22:59:41.071Z,22.47
2018-11-10T23:02:10.953Z,27.33
2018-11-10T23:04:40.787Z,20.03
2018-11-10T23:07:10.703Z,22.50
2018-11-10T23:09:40.560Z,28.07
2018-11-10T23:12:11.132Z,22.13
2018-11-10T23:14:41.184Z,21.20
2018-11-10T23:17:11.091Z,21.43
2018-11-10T23:19:40.907Z,17.13
2018-11-10T23:22:10.749Z,22.03
2018-11-10T23:24:40.682Z,21.03
2018-11-10T23:27:10.656Z,20.63
2018-11-10T23:29:40.759Z,19.17
2018-11-10T23:32:10.675Z,20.40
2018-11-10T23:34:40.537Z,22.50
2018-11-10T23:37:10.351Z,22.80
2018-11-10T23:39:40.252Z,23.03
2018-11-10T23:42:10.168Z,22.90
2018-11-10T23:44:40.037Z,20.63
2018-11-10T23:47:10.230Z,19.00
2018-11-10T23:49:40.028Z,21.00
2018-11-10T23:52:10.248Z,22.43
2018-11-10T23:54:40.457Z,22.20
2018-11-10T23:57:10.593Z,24.83
2018-11-10T23:59:40.515Z,23.27
